Westbury, New York
Current Conditions -  °F | °C
As of 4:03 PM on Tuesday 21 Oct 2014 (Local Time) from KFRG Reporting Station
Light Rain Light Rain  
Wind Chill: 61°   Ceiling: 7500
Heat Index: 61°   Visibility: 9mi
Dew Point: 57°   Wind: 6mph
Humidity: 87%   Direction: 110°ESE
Pressure: 29.84"   Gusts: NA
Location:  40.76°N, 73.59°W
Report Text: KFRG 212003Z 11005KT 9SM -RA BKN075 OVC090 16/14 A2984 RMK AO2 LTG DSNT E-S P0000 T01610139
Loading
Personal Weather Stations






























Interactive Weather Map
Tropical Storm Tracking
New forecast layout! Learn more

10-Day Weather Forecast

Advertisements
Track Severe Weather on mobile